• Join FlightAware (Why Join?)
  • Login
  • US Flag 
02:30PM EDT


 

Airport Tracker/Info


-or-


 

Live Flight TrackerFlight Track Log ✈ DAL2369 ✈ 03-Jun-2013 ✈ KATL - KMCO

Flight Track Log - Related Links

Times and Time Zones

All times are in EDT time to prevent confusion due to time zone crossing. See the DAL2369 flight status page for this flight to view local times or setup timezone preferences in your user account.

Time Position Orientation Groundspeed Altitude Reporting Facility
EDT Latitude Longitude Course Direction KTS MPH feet Rate Location/Type
01:00PM 33.6400 -84.4350 272° West  Level FlightAware
01:01PM 33.6400 -84.4340 90° East 2 2 60 Level FlightAware
01:04PM 33.5559 -84.2667 180° South  Level FlightAware Approximate
01:04PM 33.6390 -84.4340 180° South 22 25  Level FlightAware
01:04PM 33.6380 -84.4340 180° South 12 14 120 Level FlightAware
01:05PM 33.6370 -84.4340 180° South 23 26 120 Level FlightAware
01:06PM 33.6370 -84.4330 90° East 14 16 120 Level FlightAware
01:07PM 33.6370 -84.4310 90° East 28 32 120 Level FlightAware
01:07PM 33.6370 -84.4290 90° East 31 36 180 Level FlightAware
01:08PM 33.6370 -84.4260 90° East 15 17 180 Level FlightAware
01:08PM 33.6370 -84.4220 90° East 16 18 180 Level FlightAware
01:09PM 33.6360 -84.4170 104° East 34 39 240 Level FlightAware
01:10PM 33.6360 -84.4160 90° East 15 17 360 Level FlightAware
01:10PM 33.6360 -84.4130 90° East 16 18 360 Level FlightAware
01:11PM 33.6370 -84.4100 68° East 18 21 480 Level FlightAware
01:11PM 33.6350 -84.4080 140° Southeast 19 22 660 Level FlightAware
01:12PM 33.6360 -84.4100 301° West 43 49 900 Level FlightAware
01:12PM 33.6360 -84.4440 270° West 195 224 1,100 2,100 Climbing FlightAware
01:13PM 33.6350 -84.4740 268° West 196 226 2,400 2,400 Climbing FlightAware
01:13PM 33.6350 -84.4900 270° West 211 243 2,800 1,500 Climbing FlightAware
01:13PM 33.6360 -84.5220 272° West 245 282 3,400 2,400 Climbing FlightAware
01:14PM 33.6360 -84.5580 270° West 241 277 4,900 3,000 Climbing FlightAware
01:14PM 33.6360 -84.5990 270° West 256 295 6,200 2,640 Climbing FlightAware
01:15PM 33.6240 -84.6620 257° West 269 310 8,300 2,700 Climbing FlightAware
01:15PM 33.6080 -84.6760 216° Southwest 276 318 9,000 2,640 Climbing FlightAware
01:16PM 33.5970 -84.6840 211° Southwest 274 315 9,400 1,740 Climbing FlightAware
01:16PM 33.5800 -84.6930 204° Southwest 283 326 9,700 1,020 Climbing FlightAware
01:16PM 33.5610 -84.6950 185° South 293 337 9,900 360 Climbing FlightAware
01:16PM 33.5370 -84.6940 178° South 293 337 9,900 120 Level FlightAware
01:17PM 33.5020 -84.6870 171° South 296 341 10,000 60 Climbing FlightAware
01:17PM 33.4630 -84.6710 161° South 291 335 10,000  Level FlightAware
01:18PM 33.4260 -84.6580 164° South 295 339 10,000  Level FlightAware
01:18PM 33.4100 -84.6540 168° South 297 342 10,000 480 Level FlightAware
01:19PM 33.3580 -84.6400 167° South 321 369 10,400 1,800 Climbing FlightAware
01:19PM 33.2950 -84.6200 165° South 286 329 12,600 2,220 Climbing FlightAware
01:20PM 33.2390 -84.5930 158° South 313 360 13,800 1,320 Climbing FlightAware
01:21PM 33.2090 -84.5600 137° Southeast 353 406 14,200 1,080 Climbing FlightAware
01:21PM 33.1680 -84.4840 123° Southeast 387 445 15,100 1,320 Climbing FlightAware
01:22PM 33.1260 -84.4040 122° Southeast 407 468 16,200 1,560 Climbing FlightAware
01:23PM 33.0850 -84.3260 122° Southeast 420 483 17,300 1,740 Climbing FlightAware
01:23PM 33.0410 -84.2440 123° Southeast 425 489 18,700 1,860 Climbing FlightAware
01:24PM 32.9920 -84.1740 130° Southeast 423 487 19,800 1,680 Climbing FlightAware
01:24PM 32.9600 -84.1530 151° Southeast 423 487 20,300 1,500 Climbing FlightAware
01:25PM 32.8850 -84.1210 160° South 429 494 21,300 1,080 Climbing FlightAware
01:26PM 32.7570 -84.0680 161° South 438 504 22,400 600 Climbing FlightAware
01:27PM 32.7010 -84.0440 160° South 438 504 22,400 2,220 Level FlightAware
01:28PM 32.5880 -83.9990 161° South 446 513 25,400 2,700 Climbing FlightAware
01:28PM 32.5050 -83.9650 161° South 446 513 26,500 960 Climbing FlightAware
01:29PM 32.4220 -83.9310 161° South 463 533 26,800 780 Climbing FlightAware
01:30PM 32.3400 -83.8970 161° South 469 540 27,600 1,080 Climbing FlightAware
01:30PM 32.2470 -83.8590 161° South 475 547 28,400 480 Climbing FlightAware
01:31PM 32.1430 -83.8150 160° South 475 547 28,500 60 Climbing FlightAware
01:32PM 32.0800 -83.7880 160° South 475 547 28,500  Level FlightAware
01:33PM 31.9880 -83.7480 160° South 475 547 28,500  Level FlightAware
01:34PM 31.9020 -83.7120 160° South 475 547 28,500  Level FlightAware
01:34PM 31.8390 -83.6840 159° South 475 547 28,500 2,400 Level FlightAware
01:35PM 31.7278 -83.6497 159° South 473 544 31,000 1,740 Climbing Jacksonville Center
01:36PM 31.5842 -83.5975 163° South 477 549 31,000  Level Jacksonville Center
01:37PM 31.4592 -83.5478 161° South 482 555 31,000  Level Jacksonville Center
01:38PM 31.3342 -83.4981 161° South 477 549 31,000  Level Jacksonville Center
01:39PM 31.2156 -83.4247 152° Southeast 477 549 31,000  Level Jacksonville Center
01:40PM 31.0925 -83.3850 165° South 477 549 31,000  Level Jacksonville Center
01:41PM 30.9653 -83.3383 163° South 470 541 31,000  Level Jacksonville Center
01:42PM 30.8506 -83.2603 150° Southeast 465 535 31,000 -540 Level Jacksonville Center
01:43PM 30.7486 -83.1875 148° Southeast 471 542 30,000 -1,920 Descending Jacksonville Center
01:44PM 30.6317 -83.1122 151° Southeast 477 549 27,200 -1,500 Descending Jacksonville Center
01:45PM 30.5253 -83.0156 142° Southeast 482 555 27,000 -240 Descending Jacksonville Center
01:46PM 30.4147 -82.9022 139° Southeast 487 560 26,800 -360 Descending Jacksonville Center
01:51PM 29.8300 -82.3900 139° Southeast 483 556 25,000 -300 Descending FlightAware
01:52PM 29.7440 -82.3470 157° South 485 558 25,000 -120 Level FlightAware
01:52PM 29.6720 -82.3070 154° Southeast 479 551 24,900 -1,200 Descending FlightAware
01:53PM 29.5780 -82.2600 156° South 459 528 23,400 -1,620 Descending FlightAware
01:54PM 29.4850 -82.2140 157° South 453 521 22,400 -2,460 Descending FlightAware
01:55PM 29.3950 -82.1710 157° South 429 494 19,500 -3,120 Descending FlightAware
01:56PM 29.3160 -82.1320 157° South 414 476 17,900 -2,280 Descending FlightAware
01:56PM 29.2470 -82.1040 161° South 401 461 16,400 -2,100 Descending FlightAware
01:57PM 29.1730 -82.0640 155° Southeast 386 444 15,000 -1,440 Descending FlightAware
01:58PM 29.1010 -82.0260 155° Southeast 382 440 14,200 -1,680 Descending FlightAware
01:59PM 29.0190 -81.9860 157° South 375 432 12,300 -2,100 Descending FlightAware
01:59PM 28.9660 -81.9610 158° South 333 383 11,400 -1,320 Descending FlightAware
02:00PM 28.9370 -81.9380 145° Southeast 320 368 11,100 -420 Descending FlightAware
02:00PM 28.9060 -81.8870 125° Southeast 303 349 11,000 -120 Descending FlightAware
02:01PM 28.8780 -81.8360 122° Southeast 301 346 11,000 -600 Level FlightAware
02:02PM 28.8380 -81.7640 122° Southeast 297 342 10,000 -780 Descending FlightAware
02:02PM 28.8230 -81.7370 122° Southeast 297 342 10,000  Level FlightAware
02:03PM 28.8070 -81.7090 123° Southeast 297 342 10,000  Level FlightAware
02:03PM 28.7840 -81.6670 122° Southeast 297 342 10,000 -1,080 Level FlightAware
02:04PM 28.7553 -81.6328 122° Southeast 286 329 8,900 -1,860 Descending Jacksonville Center
02:04PM 28.7500 -81.5833 97° East 241 277 8,400 -840 Descending Orlando TRACON
02:10PM 28.6690 -81.3210 97° East 224 258 4,000 -780 Descending FlightAware
02:10PM 28.6360 -81.3190 177° South 227 261 3,700 -720 Descending FlightAware
02:11PM 28.5960 -81.3190 180° South 222 255 3,000 -780 Descending FlightAware
02:12PM 28.5810 -81.3190 180° South 211 243 2,700 -720 Descending FlightAware
02:12PM 28.5690 -81.3190 180° South 205 236 2,500 -780 Descending FlightAware
02:12PM 28.5540 -81.3190 180° South 188 216 2,200 -600 Descending FlightAware
02:13PM 28.5440 -81.3190 180° South 178 205 2,000 -240 Descending FlightAware
02:13PM 28.5240 -81.3190 180° South 178 205 2,000  Level FlightAware